sensor_id;sensor_type;location;lat;lon;timestamp;P1;durP1;ratioP1;P2;durP2;ratioP2
51824;SDS011;37879;52.986;6.282;2023-11-21T00:00:18;17.05;;;7.05;;
51824;SDS011;37879;52.986;6.282;2023-11-21T00:02:44;16.33;;;7.53;;
51824;SDS011;37879;52.986;6.282;2023-11-21T00:05:11;13.68;;;7.18;;
51824;SDS011;37879;52.986;6.282;2023-11-21T00:07:41;17.48;;;7.95;;
51824;SDS011;37879;52.986;6.282;2023-11-21T00:10:08;17.05;;;7.53;;
51824;SDS011;37879;52.986;6.282;2023-11-21T00:12:35;18.85;;;7.25;;
51824;SDS011;37879;52.986;6.282;2023-11-21T00:15:01;18.10;;;7.35;;
51824;SDS011;37879;52.986;6.282;2023-11-21T00:17:27;19.42;;;7.43;;
51824;SDS011;37879;52.986;6.282;2023-11-21T00:19:53;19.77;;;7.57;;
51824;SDS011;37879;52.986;6.282;2023-11-21T00:22:19;19.48;;;7.50;;
51824;SDS011;37879;52.986;6.282;2023-11-21T00:24:45;15.07;;;7.22;;
51824;SDS011;37879;52.986;6.282;2023-11-21T00:27:12;21.95;;;7.75;;
51824;SDS011;37879;52.986;6.282;2023-11-21T00:29:37;21.00;;;8.15;;
51824;SDS011;37879;52.986;6.282;2023-11-21T00:32:04;22.63;;;6.93;;
51824;SDS011;37879;52.986;6.282;2023-11-21T00:34:30;16.42;;;8.57;;
51824;SDS011;37879;52.986;6.282;2023-11-21T00:36:57;14.70;;;7.10;;
51824;SDS011;37879;52.986;6.282;2023-11-21T00:39:22;19.17;;;7.88;;
51824;SDS011;37879;52.986;6.282;2023-11-21T00:41:49;13.70;;;7.07;;
51824;SDS011;37879;52.986;6.282;2023-11-21T00:44:14;18.50;;;7.28;;
51824;SDS011;37879;52.986;6.282;2023-11-21T00:46:41;19.45;;;7.35;;
51824;SDS011;37879;52.986;6.282;2023-11-21T00:49:07;14.65;;;7.10;;
51824;SDS011;37879;52.986;6.282;2023-11-21T00:51:33;23.13;;;7.10;;
51824;SDS011;37879;52.986;6.282;2023-11-21T00:53:59;19.23;;;7.82;;
51824;SDS011;37879;52.986;6.282;2023-11-21T00:56:24;21.08;;;7.47;;
51824;SDS011;37879;52.986;6.282;2023-11-21T00:58:50;21.15;;;7.43;;
51824;SDS011;37879;52.986;6.282;2023-11-21T01:01:18;16.13;;;7.22;;
51824;SDS011;37879;52.986;6.282;2023-11-21T01:03:45;16.40;;;7.05;;
51824;SDS011;37879;52.986;6.282;2023-11-21T01:06:11;18.90;;;8.23;;
51824;SDS011;37879;52.986;6.282;2023-11-21T01:08:37;20.05;;;7.55;;
51824;SDS011;37879;52.986;6.282;2023-11-21T01:11:03;20.55;;;8.13;;
51824;SDS011;37879;52.986;6.282;2023-11-21T01:13:29;18.10;;;7.10;;
51824;SDS011;37879;52.986;6.282;2023-11-21T01:15:55;17.42;;;7.68;;
51824;SDS011;37879;52.986;6.282;2023-11-21T01:18:21;14.60;;;7.20;;
51824;SDS011;37879;52.986;6.282;2023-11-21T01:20:47;13.35;;;6.65;;
51824;SDS011;37879;52.986;6.282;2023-11-21T01:23:13;18.45;;;7.13;;
51824;SDS011;37879;52.986;6.282;2023-11-21T01:25:39;20.63;;;7.68;;
51824;SDS011;37879;52.986;6.282;2023-11-21T01:28:05;17.42;;;7.32;;
51824;SDS011;37879;52.986;6.282;2023-11-21T01:30:31;20.15;;;8.02;;
51824;SDS011;37879;52.986;6.282;2023-11-21T01:32:57;18.17;;;7.18;;
51824;SDS011;37879;52.986;6.282;2023-11-21T01:35:23;17.77;;;7.13;;
51824;SDS011;37879;52.986;6.282;2023-11-21T01:37:49;20.92;;;6.32;;
51824;SDS011;37879;52.986;6.282;2023-11-21T01:40:15;20.38;;;7.28;;
51824;SDS011;37879;52.986;6.282;2023-11-21T01:42:41;20.88;;;7.18;;
51824;SDS011;37879;52.986;6.282;2023-11-21T01:45:09;21.15;;;7.50;;
51824;SDS011;37879;52.986;6.282;2023-11-21T01:47:35;21.10;;;7.15;;
51824;SDS011;37879;52.986;6.282;2023-11-21T01:50:02;18.05;;;6.97;;
51824;SDS011;37879;52.986;6.282;2023-11-21T01:52:29;20.20;;;7.07;;
51824;SDS011;37879;52.986;6.282;2023-11-21T01:54:56;18.33;;;7.20;;
51824;SDS011;37879;52.986;6.282;2023-11-21T01:57:24;16.45;;;7.05;;
51824;SDS011;37879;52.986;6.282;2023-11-21T01:59:50;28.30;;;8.93;;
51824;SDS011;37879;52.986;6.282;2023-11-21T02:02:19;16.15;;;6.70;;
51824;SDS011;37879;52.986;6.282;2023-11-21T02:04:44;18.75;;;7.13;;
51824;SDS011;37879;52.986;6.282;2023-11-21T02:07:10;14.52;;;6.68;;
51824;SDS011;37879;52.986;6.282;2023-11-21T02:09:36;13.93;;;6.68;;
51824;SDS011;37879;52.986;6.282;2023-11-21T02:12:07;19.13;;;7.97;;
51824;SDS011;37879;52.986;6.282;2023-11-21T02:14:35;12.18;;;6.65;;
51824;SDS011;37879;52.986;6.282;2023-11-21T02:17:01;20.63;;;7.30;;
51824;SDS011;37879;52.986;6.282;2023-11-21T02:19:28;18.08;;;6.55;;
51824;SDS011;37879;52.986;6.282;2023-11-21T02:21:56;17.30;;;7.30;;
51824;SDS011;37879;52.986;6.282;2023-11-21T02:24:28;13.90;;;6.30;;
51824;SDS011;37879;52.986;6.282;2023-11-21T02:26:54;15.68;;;6.32;;
51824;SDS011;37879;52.986;6.282;2023-11-21T02:29:20;19.25;;;6.32;;
51824;SDS011;37879;52.986;6.282;2023-11-21T02:31:53;11.63;;;6.22;;
51824;SDS011;37879;52.986;6.282;2023-11-21T02:34:20;16.90;;;6.40;;
51824;SDS011;37879;52.986;6.282;2023-11-21T02:36:47;19.55;;;6.18;;
51824;SDS011;37879;52.986;6.282;2023-11-21T02:39:16;17.45;;;6.63;;
51824;SDS011;37879;52.986;6.282;2023-11-21T02:41:43;15.73;;;6.15;;
51824;SDS011;37879;52.986;6.282;2023-11-21T02:44:09;19.15;;;7.38;;
51824;SDS011;37879;52.986;6.282;2023-11-21T02:46:35;16.35;;;6.95;;
51824;SDS011;37879;52.986;6.282;2023-11-21T02:49:02;20.83;;;7.85;;
51824;SDS011;37879;52.986;6.282;2023-11-21T02:51:29;16.02;;;6.80;;
51824;SDS011;37879;52.986;6.282;2023-11-21T02:53:56;18.40;;;7.45;;
51824;SDS011;37879;52.986;6.282;2023-11-21T02:56:27;17.20;;;6.80;;
51824;SDS011;37879;52.986;6.282;2023-11-21T02:58:57;20.63;;;7.60;;
51824;SDS011;37879;52.986;6.282;2023-11-21T03:01:23;20.58;;;7.20;;
51824;SDS011;37879;52.986;6.282;2023-11-21T03:03:52;18.23;;;7.47;;
51824;SDS011;37879;52.986;6.282;2023-11-21T03:06:18;14.68;;;7.00;;
51824;SDS011;37879;52.986;6.282;2023-11-21T03:08:44;20.15;;;7.68;;
51824;SDS011;37879;52.986;6.282;2023-11-21T03:11:10;19.75;;;7.25;;
51824;SDS011;37879;52.986;6.282;2023-11-21T03:13:38;14.45;;;7.38;;
51824;SDS011;37879;52.986;6.282;2023-11-21T03:16:06;21.50;;;7.65;;
51824;SDS011;37879;52.986;6.282;2023-11-21T03:18:36;15.60;;;7.05;;
51824;SDS011;37879;52.986;6.282;2023-11-21T03:21:02;16.00;;;7.18;;
51824;SDS011;37879;52.986;6.282;2023-11-21T03:23:29;18.30;;;7.50;;
51824;SDS011;37879;52.986;6.282;2023-11-21T03:25:55;17.40;;;7.55;;
51824;SDS011;37879;52.986;6.282;2023-11-21T03:28:20;13.15;;;6.70;;
51824;SDS011;37879;52.986;6.282;2023-11-21T03:30:46;16.17;;;7.38;;
51824;SDS011;37879;52.986;6.282;2023-11-21T03:33:12;24.20;;;8.05;;
51824;SDS011;37879;52.986;6.282;2023-11-21T03:35:38;16.33;;;6.65;;
51824;SDS011;37879;52.986;6.282;2023-11-21T03:38:03;16.55;;;7.07;;
51824;SDS011;37879;52.986;6.282;2023-11-21T03:40:29;19.60;;;7.05;;
51824;SDS011;37879;52.986;6.282;2023-11-21T03:42:56;17.40;;;7.80;;
51824;SDS011;37879;52.986;6.282;2023-11-21T03:45:22;16.73;;;8.15;;
51824;SDS011;37879;52.986;6.282;2023-11-21T03:47:48;27.30;;;8.65;;
51824;SDS011;37879;52.986;6.282;2023-11-21T03:50:14;19.30;;;7.35;;
51824;SDS011;37879;52.986;6.282;2023-11-21T03:52:39;24.05;;;9.07;;
51824;SDS011;37879;52.986;6.282;2023-11-21T03:55:05;21.40;;;8.35;;
51824;SDS011;37879;52.986;6.282;2023-11-21T03:57:31;29.35;;;9.68;;
51824;SDS011;37879;52.986;6.282;2023-11-21T03:59:56;29.08;;;9.18;;
51824;SDS011;37879;52.986;6.282;2023-11-21T04:02:22;23.98;;;8.95;;
51824;SDS011;37879;52.986;6.282;2023-11-21T04:04:50;23.80;;;8.82;;
51824;SDS011;37879;52.986;6.282;2023-11-21T04:07:15;24.40;;;8.93;;
51824;SDS011;37879;52.986;6.282;2023-11-21T04:09:41;24.65;;;8.27;;
51824;SDS011;37879;52.986;6.282;2023-11-21T04:12:07;23.10;;;9.63;;
51824;SDS011;37879;52.986;6.282;2023-11-21T04:14:36;21.27;;;9.55;;
51824;SDS011;37879;52.986;6.282;2023-11-21T04:17:01;21.95;;;8.88;;
51824;SDS011;37879;52.986;6.282;2023-11-21T04:19:29;24.58;;;9.02;;
51824;SDS011;37879;52.986;6.282;2023-11-21T04:21:55;23.15;;;9.07;;
51824;SDS011;37879;52.986;6.282;2023-11-21T04:24:20;16.60;;;6.22;;
51824;SDS011;37879;52.986;6.282;2023-11-21T04:26:46;20.98;;;8.80;;
51824;SDS011;37879;52.986;6.282;2023-11-21T04:29:12;14.75;;;6.88;;
51824;SDS011;37879;52.986;6.282;2023-11-21T04:31:37;19.73;;;9.00;;
51824;SDS011;37879;52.986;6.282;2023-11-21T04:34:03;20.65;;;8.77;;
51824;SDS011;37879;52.986;6.282;2023-11-21T04:36:29;22.05;;;9.68;;
51824;SDS011;37879;52.986;6.282;2023-11-21T04:38:59;14.73;;;7.40;;
51824;SDS011;37879;52.986;6.282;2023-11-21T04:41:24;16.55;;;8.10;;
51824;SDS011;37879;52.986;6.282;2023-11-21T04:43:50;20.65;;;9.95;;
51824;SDS011;37879;52.986;6.282;2023-11-21T04:46:16;25.08;;;9.00;;
51824;SDS011;37879;52.986;6.282;2023-11-21T04:48:41;19.52;;;9.30;;
51824;SDS011;37879;52.986;6.282;2023-11-21T04:51:07;21.20;;;8.80;;
51824;SDS011;37879;52.986;6.282;2023-11-21T04:53:33;21.30;;;9.63;;
51824;SDS011;37879;52.986;6.282;2023-11-21T04:55:59;23.35;;;10.10;;
51824;SDS011;37879;52.986;6.282;2023-11-21T04:58:25;19.52;;;8.10;;
51824;SDS011;37879;52.986;6.282;2023-11-21T05:00:51;17.58;;;8.73;;
51824;SDS011;37879;52.986;6.282;2023-11-21T05:03:17;25.40;;;10.50;;
51824;SDS011;37879;52.986;6.282;2023-11-21T05:05:42;17.08;;;8.55;;
51824;SDS011;37879;52.986;6.282;2023-11-21T05:08:08;23.13;;;9.25;;
51824;SDS011;37879;52.986;6.282;2023-11-21T05:10:34;21.00;;;10.82;;
51824;SDS011;37879;52.986;6.282;2023-11-21T05:13:03;20.67;;;10.38;;
51824;SDS011;37879;52.986;6.282;2023-11-21T05:15:29;22.88;;;12.32;;
51824;SDS011;37879;52.986;6.282;2023-11-21T05:17:54;19.73;;;10.68;;
51824;SDS011;37879;52.986;6.282;2023-11-21T05:20:20;26.38;;;11.68;;
51824;SDS011;37879;52.986;6.282;2023-11-21T05:22:46;19.15;;;9.93;;
51824;SDS011;37879;52.986;6.282;2023-11-21T05:25:13;30.40;;;12.30;;
51824;SDS011;37879;52.986;6.282;2023-11-21T05:27:39;22.90;;;11.32;;
51824;SDS011;37879;52.986;6.282;2023-11-21T05:30:05;19.73;;;10.73;;
51824;SDS011;37879;52.986;6.282;2023-11-21T05:32:32;18.33;;;10.15;;
51824;SDS011;37879;52.986;6.282;2023-11-21T05:34:58;24.42;;;10.40;;
51824;SDS011;37879;52.986;6.282;2023-11-21T05:37:24;23.15;;;11.65;;
51824;SDS011;37879;52.986;6.282;2023-11-21T05:39:52;24.67;;;10.63;;
51824;SDS011;37879;52.986;6.282;2023-11-21T05:42:18;19.17;;;9.25;;
51824;SDS011;37879;52.986;6.282;2023-11-21T05:44:44;16.23;;;9.75;;
51824;SDS011;37879;52.986;6.282;2023-11-21T05:47:10;17.92;;;10.18;;
51824;SDS011;37879;52.986;6.282;2023-11-21T05:49:36;21.67;;;10.68;;
51824;SDS011;37879;52.986;6.282;2023-11-21T05:52:02;16.20;;;9.25;;
51824;SDS011;37879;52.986;6.282;2023-11-21T05:54:28;17.88;;;10.00;;
51824;SDS011;37879;52.986;6.282;2023-11-21T05:56:54;18.42;;;9.57;;
51824;SDS011;37879;52.986;6.282;2023-11-21T05:59:20;14.77;;;8.70;;
51824;SDS011;37879;52.986;6.282;2023-11-21T06:01:45;15.23;;;8.70;;
51824;SDS011;37879;52.986;6.282;2023-11-21T06:04:11;15.98;;;7.63;;
51824;SDS011;37879;52.986;6.282;2023-11-21T06:06:38;15.57;;;8.43;;
51824;SDS011;37879;52.986;6.282;2023-11-21T06:09:04;16.08;;;9.45;;
51824;SDS011;37879;52.986;6.282;2023-11-21T06:11:31;21.38;;;9.52;;
51824;SDS011;37879;52.986;6.282;2023-11-21T06:13:57;17.50;;;8.98;;
51824;SDS011;37879;52.986;6.282;2023-11-21T06:16:23;18.40;;;9.35;;
51824;SDS011;37879;52.986;6.282;2023-11-21T06:18:49;18.13;;;9.07;;
51824;SDS011;37879;52.986;6.282;2023-11-21T06:21:15;20.90;;;9.32;;
51824;SDS011;37879;52.986;6.282;2023-11-21T06:23:42;13.13;;;6.03;;
51824;SDS011;37879;52.986;6.282;2023-11-21T06:26:08;19.60;;;9.70;;
51824;SDS011;37879;52.986;6.282;2023-11-21T06:28:34;22.60;;;9.48;;
51824;SDS011;37879;52.986;6.282;2023-11-21T06:31:01;14.20;;;7.47;;
51824;SDS011;37879;52.986;6.282;2023-11-21T06:33:33;14.95;;;7.47;;
51824;SDS011;37879;52.986;6.282;2023-11-21T06:35:59;15.57;;;8.13;;
51824;SDS011;37879;52.986;6.282;2023-11-21T06:38:28;16.77;;;8.20;;
51824;SDS011;37879;52.986;6.282;2023-11-21T06:40:55;15.93;;;7.97;;
51824;SDS011;37879;52.986;6.282;2023-11-21T06:43:23;16.70;;;8.13;;
51824;SDS011;37879;52.986;6.282;2023-11-21T06:45:49;14.45;;;7.50;;
51824;SDS011;37879;52.986;6.282;2023-11-21T06:48:14;13.07;;;6.93;;
51824;SDS011;37879;52.986;6.282;2023-11-21T06:50:40;17.58;;;8.32;;
51824;SDS011;37879;52.986;6.282;2023-11-21T06:53:06;14.13;;;6.78;;
51824;SDS011;37879;52.986;6.282;2023-11-21T06:55:33;12.27;;;6.75;;
51824;SDS011;37879;52.986;6.282;2023-11-21T06:57:59;13.90;;;7.60;;
51824;SDS011;37879;52.986;6.282;2023-11-21T07:00:25;14.05;;;7.05;;
51824;SDS011;37879;52.986;6.282;2023-11-21T07:02:53;14.38;;;7.28;;
51824;SDS011;37879;52.986;6.282;2023-11-21T07:05:20;10.60;;;5.43;;
51824;SDS011;37879;52.986;6.282;2023-11-21T07:07:47;13.40;;;7.13;;
51824;SDS011;37879;52.986;6.282;2023-11-21T07:10:14;15.15;;;7.70;;
51824;SDS011;37879;52.986;6.282;2023-11-21T07:12:40;12.50;;;7.03;;
51824;SDS011;37879;52.986;6.282;2023-11-21T07:15:06;15.38;;;7.57;;
51824;SDS011;37879;52.986;6.282;2023-11-21T07:17:37;17.48;;;7.53;;
51824;SDS011;37879;52.986;6.282;2023-11-21T07:20:03;11.95;;;5.82;;
51824;SDS011;37879;52.986;6.282;2023-11-21T07:22:29;10.63;;;7.13;;
51824;SDS011;37879;52.986;6.282;2023-11-21T07:24:55;14.38;;;7.45;;
51824;SDS011;37879;52.986;6.282;2023-11-21T07:27:24;14.52;;;7.32;;
51824;SDS011;37879;52.986;6.282;2023-11-21T07:29:50;13.48;;;7.63;;
51824;SDS011;37879;52.986;6.282;2023-11-21T07:32:15;13.23;;;7.03;;
51824;SDS011;37879;52.986;6.282;2023-11-21T07:34:41;16.30;;;7.97;;
51824;SDS011;37879;52.986;6.282;2023-11-21T07:37:07;17.45;;;7.85;;
51824;SDS011;37879;52.986;6.282;2023-11-21T07:39:34;13.27;;;7.45;;
51824;SDS011;37879;52.986;6.282;2023-11-21T07:42:01;13.52;;;7.47;;
51824;SDS011;37879;52.986;6.282;2023-11-21T07:44:27;15.20;;;8.20;;
51824;SDS011;37879;52.986;6.282;2023-11-21T07:46:53;12.82;;;8.10;;
51824;SDS011;37879;52.986;6.282;2023-11-21T07:49:23;14.15;;;6.38;;
51824;SDS011;37879;52.986;6.282;2023-11-21T07:51:50;13.15;;;7.25;;
51824;SDS011;37879;52.986;6.282;2023-11-21T07:54:16;17.38;;;8.10;;
51824;SDS011;37879;52.986;6.282;2023-11-21T07:56:41;15.30;;;7.63;;
51824;SDS011;37879;52.986;6.282;2023-11-21T07:59:07;17.63;;;8.43;;
51824;SDS011;37879;52.986;6.282;2023-11-21T08:01:33;13.65;;;7.68;;
51824;SDS011;37879;52.986;6.282;2023-11-21T08:03:59;15.85;;;7.93;;
51824;SDS011;37879;52.986;6.282;2023-11-21T08:06:28;17.38;;;7.75;;
51824;SDS011;37879;52.986;6.282;2023-11-21T08:08:55;14.65;;;7.15;;
51824;SDS011;37879;52.986;6.282;2023-11-21T08:11:21;13.00;;;7.15;;
51824;SDS011;37879;52.986;6.282;2023-11-21T08:13:47;15.45;;;8.15;;
51824;SDS011;37879;52.986;6.282;2023-11-21T08:16:13;16.45;;;7.50;;
51824;SDS011;37879;52.986;6.282;2023-11-21T08:18:39;14.60;;;7.55;;
51824;SDS011;37879;52.986;6.282;2023-11-21T08:21:06;14.68;;;7.55;;
51824;SDS011;37879;52.986;6.282;2023-11-21T08:23:33;12.05;;;5.75;;
51824;SDS011;37879;52.986;6.282;2023-11-21T08:25:59;12.35;;;6.80;;
51824;SDS011;37879;52.986;6.282;2023-11-21T08:28:25;14.18;;;8.15;;
51824;SDS011;37879;52.986;6.282;2023-11-21T08:30:51;13.55;;;7.38;;
51824;SDS011;37879;52.986;6.282;2023-11-21T08:33:17;13.45;;;7.10;;
51824;SDS011;37879;52.986;6.282;2023-11-21T08:35:43;12.27;;;7.00;;
51824;SDS011;37879;52.986;6.282;2023-11-21T08:38:11;15.00;;;8.30;;
51824;SDS011;37879;52.986;6.282;2023-11-21T08:40:37;11.20;;;6.22;;
51824;SDS011;37879;52.986;6.282;2023-11-21T08:43:03;13.85;;;6.78;;
51824;SDS011;37879;52.986;6.282;2023-11-21T08:45:33;13.48;;;7.32;;
51824;SDS011;37879;52.986;6.282;2023-11-21T08:48:02;11.43;;;6.55;;
51824;SDS011;37879;52.986;6.282;2023-11-21T08:50:28;12.35;;;6.20;;
51824;SDS011;37879;52.986;6.282;2023-11-21T08:52:54;11.18;;;6.18;;
51824;SDS011;37879;52.986;6.282;2023-11-21T08:55:20;13.15;;;5.97;;
51824;SDS011;37879;52.986;6.282;2023-11-21T08:57:47;13.82;;;7.97;;
51824;SDS011;37879;52.986;6.282;2023-11-21T09:00:13;12.60;;;6.90;;
51824;SDS011;37879;52.986;6.282;2023-11-21T09:02:41;14.07;;;7.93;;
51824;SDS011;37879;52.986;6.282;2023-11-21T09:05:08;14.20;;;6.80;;
51824;SDS011;37879;52.986;6.282;2023-11-21T09:07:35;16.00;;;7.95;;
51824;SDS011;37879;52.986;6.282;2023-11-21T09:10:01;15.52;;;9.00;;
51824;SDS011;37879;52.986;6.282;2023-11-21T09:12:33;14.57;;;8.68;;
51824;SDS011;37879;52.986;6.282;2023-11-21T09:15:00;15.75;;;8.82;;
51824;SDS011;37879;52.986;6.282;2023-11-21T09:17:27;14.90;;;6.13;;
51824;SDS011;37879;52.986;6.282;2023-11-21T09:19:53;21.05;;;11.02;;
51824;SDS011;37879;52.986;6.282;2023-11-21T09:22:19;14.77;;;8.45;;
51824;SDS011;37879;52.986;6.282;2023-11-21T09:24:45;15.13;;;8.10;;
51824;SDS011;37879;52.986;6.282;2023-11-21T09:27:10;15.50;;;9.30;;
51824;SDS011;37879;52.986;6.282;2023-11-21T09:29:37;14.57;;;9.07;;
51824;SDS011;37879;52.986;6.282;2023-11-21T09:32:04;17.63;;;8.95;;
51824;SDS011;37879;52.986;6.282;2023-11-21T09:34:32;16.25;;;8.80;;
51824;SDS011;37879;52.986;6.282;2023-11-21T09:37:01;18.55;;;9.43;;
51824;SDS011;37879;52.986;6.282;2023-11-21T09:39:30;19.88;;;11.15;;
51824;SDS011;37879;52.986;6.282;2023-11-21T09:42:03;17.98;;;11.25;;
51824;SDS011;37879;52.986;6.282;2023-11-21T09:47:07;20.00;;;11.60;;
51824;SDS011;37879;52.986;6.282;2023-11-21T09:49:37;19.33;;;11.63;;
51824;SDS011;37879;52.986;6.282;2023-11-21T09:52:04;16.58;;;9.18;;
51824;SDS011;37879;52.986;6.282;2023-11-21T09:54:33;19.25;;;11.70;;
51824;SDS011;37879;52.986;6.282;2023-11-21T09:57:00;19.52;;;10.05;;
51824;SDS011;37879;52.986;6.282;2023-11-21T09:59:30;18.25;;;11.30;;
51824;SDS011;37879;52.986;6.282;2023-11-21T10:01:57;18.77;;;10.85;;
51824;SDS011;37879;52.986;6.282;2023-11-21T10:04:27;17.13;;;9.93;;
51824;SDS011;37879;52.986;6.282;2023-11-21T10:06:53;17.50;;;10.60;;
51824;SDS011;37879;52.986;6.282;2023-11-21T10:09:20;15.57;;;9.70;;
51824;SDS011;37879;52.986;6.282;2023-11-21T10:11:48;14.43;;;8.70;;
51824;SDS011;37879;52.986;6.282;2023-11-21T10:14:17;14.23;;;7.95;;
51824;SDS011;37879;52.986;6.282;2023-11-21T10:16:44;13.15;;;8.30;;
51824;SDS011;37879;52.986;6.282;2023-11-21T10:19:12;12.50;;;8.35;;
51824;SDS011;37879;52.986;6.282;2023-11-21T10:21:42;13.43;;;8.70;;
51824;SDS011;37879;52.986;6.282;2023-11-21T10:24:08;13.25;;;8.55;;
51824;SDS011;37879;52.986;6.282;2023-11-21T10:26:34;15.38;;;9.48;;
51824;SDS011;37879;52.986;6.282;2023-11-21T10:29:02;13.23;;;8.48;;
51824;SDS011;37879;52.986;6.282;2023-11-21T10:31:31;13.15;;;9.15;;
51824;SDS011;37879;52.986;6.282;2023-11-21T10:34:18;16.17;;;9.07;;
51824;SDS011;37879;52.986;6.282;2023-11-21T10:36:44;14.55;;;8.80;;
51824;SDS011;37879;52.986;6.282;2023-11-21T10:39:14;13.60;;;8.35;;
51824;SDS011;37879;52.986;6.282;2023-11-21T10:41:44;14.45;;;9.23;;
51824;SDS011;37879;52.986;6.282;2023-11-21T10:44:14;18.38;;;10.18;;
51824;SDS011;37879;52.986;6.282;2023-11-21T10:46:48;14.02;;;8.88;;
51824;SDS011;37879;52.986;6.282;2023-11-21T10:49:21;14.77;;;9.20;;
51824;SDS011;37879;52.986;6.282;2023-11-21T10:51:49;13.95;;;9.07;;
51824;SDS011;37879;52.986;6.282;2023-11-21T10:54:20;16.85;;;10.20;;
51824;SDS011;37879;52.986;6.282;2023-11-21T10:57:06;16.70;;;10.13;;
51824;SDS011;37879;52.986;6.282;2023-11-21T10:59:32;13.45;;;8.60;;
51824;SDS011;37879;52.986;6.282;2023-11-21T11:01:58;12.75;;;7.70;;
51824;SDS011;37879;52.986;6.282;2023-11-21T11:04:27;12.25;;;8.68;;
51824;SDS011;37879;52.986;6.282;2023-11-21T11:07:01;12.23;;;7.38;;
51824;SDS011;37879;52.986;6.282;2023-11-21T11:11:55;11.60;;;8.05;;
51824;SDS011;37879;52.986;6.282;2023-11-21T11:14:21;12.55;;;9.13;;
51824;SDS011;37879;52.986;6.282;2023-11-21T11:16:52;11.18;;;7.55;;
51824;SDS011;37879;52.986;6.282;2023-11-21T11:19:19;12.77;;;7.50;;
51824;SDS011;37879;52.986;6.282;2023-11-21T11:33:06;10.43;;;6.35;;
51824;SDS011;37879;52.986;6.282;2023-11-21T11:35:38;11.68;;;7.88;;
51824;SDS011;37879;52.986;6.282;2023-11-21T11:38:26;10.90;;;6.75;;
51824;SDS011;37879;52.986;6.282;2023-11-21T11:40:57;9.63;;;6.45;;
51824;SDS011;37879;52.986;6.282;2023-11-21T11:43:30;11.15;;;6.25;;
51824;SDS011;37879;52.986;6.282;2023-11-21T11:45:58;9.63;;;5.55;;
51824;SDS011;37879;52.986;6.282;2023-11-21T11:48:25;10.88;;;6.85;;
51824;SDS011;37879;52.986;6.282;2023-11-21T11:51:00;11.20;;;7.78;;
51824;SDS011;37879;52.986;6.282;2023-11-21T11:53:40;10.00;;;6.90;;
51824;SDS011;37879;52.986;6.282;2023-11-21T11:59:02;9.90;;;6.18;;
51824;SDS011;37879;52.986;6.282;2023-11-21T12:01:29;10.18;;;5.97;;
51824;SDS011;37879;52.986;6.282;2023-11-21T12:06:57;7.78;;;5.18;;
51824;SDS011;37879;52.986;6.282;2023-11-21T12:09:28;8.93;;;5.82;;
51824;SDS011;37879;52.986;6.282;2023-11-21T12:11:56;7.38;;;4.65;;
51824;SDS011;37879;52.986;6.282;2023-11-21T12:14:22;9.93;;;6.43;;
51824;SDS011;37879;52.986;6.282;2023-11-21T12:16:48;8.13;;;5.53;;
51824;SDS011;37879;52.986;6.282;2023-11-21T12:19:14;9.07;;;6.25;;
51824;SDS011;37879;52.986;6.282;2023-11-21T12:21:40;9.10;;;5.63;;
51824;SDS011;37879;52.986;6.282;2023-11-21T12:24:06;8.52;;;4.90;;
51824;SDS011;37879;52.986;6.282;2023-11-21T12:26:38;8.98;;;5.05;;
51824;SDS011;37879;52.986;6.282;2023-11-21T12:29:05;8.60;;;4.85;;
51824;SDS011;37879;52.986;6.282;2023-11-21T12:31:32;9.10;;;5.55;;
51824;SDS011;37879;52.986;6.282;2023-11-21T12:33:59;10.25;;;5.55;;
51824;SDS011;37879;52.986;6.282;2023-11-21T12:36:25;9.63;;;5.95;;
51824;SDS011;37879;52.986;6.282;2023-11-21T12:38:51;4.30;;;2.45;;
51824;SDS011;37879;52.986;6.282;2023-11-21T12:41:17;8.02;;;4.70;;
51824;SDS011;37879;52.986;6.282;2023-11-21T12:43:42;7.40;;;4.82;;
51824;SDS011;37879;52.986;6.282;2023-11-21T12:46:09;7.63;;;5.05;;
51824;SDS011;37879;52.986;6.282;2023-11-21T12:48:39;9.40;;;6.13;;
51824;SDS011;37879;52.986;6.282;2023-11-21T12:51:09;8.18;;;4.22;;
51824;SDS011;37879;52.986;6.282;2023-11-21T12:53:42;7.88;;;4.75;;
51824;SDS011;37879;52.986;6.282;2023-11-21T12:56:11;8.15;;;5.05;;
51824;SDS011;37879;52.986;6.282;2023-11-21T12:58:38;7.13;;;4.05;;
51824;SDS011;37879;52.986;6.282;2023-11-21T13:01:06;7.57;;;4.28;;
51824;SDS011;37879;52.986;6.282;2023-11-21T13:03:37;8.02;;;4.82;;
51824;SDS011;37879;52.986;6.282;2023-11-21T13:06:05;10.80;;;4.60;;
51824;SDS011;37879;52.986;6.282;2023-11-21T13:08:32;8.55;;;4.75;;
51824;SDS011;37879;52.986;6.282;2023-11-21T13:10:59;6.53;;;4.70;;
51824;SDS011;37879;52.986;6.282;2023-11-21T13:13:27;7.03;;;4.32;;
51824;SDS011;37879;52.986;6.282;2023-11-21T13:15:54;5.45;;;3.63;;
51824;SDS011;37879;52.986;6.282;2023-11-21T13:18:21;8.45;;;4.13;;
51824;SDS011;37879;52.986;6.282;2023-11-21T13:20:48;8.40;;;5.00;;
51824;SDS011;37879;52.986;6.282;2023-11-21T13:23:15;9.45;;;4.82;;
51824;SDS011;37879;52.986;6.282;2023-11-21T13:25:44;8.15;;;4.35;;
51824;SDS011;37879;52.986;6.282;2023-11-21T13:28:12;5.43;;;3.30;;
51824;SDS011;37879;52.986;6.282;2023-11-21T13:30:37;6.30;;;4.22;;
51824;SDS011;37879;52.986;6.282;2023-11-21T13:33:05;6.80;;;4.32;;
51824;SDS011;37879;52.986;6.282;2023-11-21T13:35:33;6.93;;;4.22;;
51824;SDS011;37879;52.986;6.282;2023-11-21T13:38:06;7.15;;;3.95;;
51824;SDS011;37879;52.986;6.282;2023-11-21T13:40:32;7.20;;;4.53;;
51824;SDS011;37879;52.986;6.282;2023-11-21T13:43:10;7.40;;;3.95;;
51824;SDS011;37879;52.986;6.282;2023-11-21T13:45:39;7.15;;;4.25;;
51824;SDS011;37879;52.986;6.282;2023-11-21T13:48:06;9.70;;;4.63;;
51824;SDS011;37879;52.986;6.282;2023-11-21T13:50:44;7.05;;;4.30;;
51824;SDS011;37879;52.986;6.282;2023-11-21T13:53:20;8.75;;;4.88;;
51824;SDS011;37879;52.986;6.282;2023-11-21T13:55:50;5.30;;;3.03;;
51824;SDS011;37879;52.986;6.282;2023-11-21T13:58:19;11.40;;;5.25;;
51824;SDS011;37879;52.986;6.282;2023-11-21T14:00:53;8.52;;;4.40;;
51824;SDS011;37879;52.986;6.282;2023-11-21T14:03:22;6.78;;;3.92;;
51824;SDS011;37879;52.986;6.282;2023-11-21T14:05:57;6.60;;;4.13;;
51824;SDS011;37879;52.986;6.282;2023-11-21T14:08:25;8.30;;;4.18;;
51824;SDS011;37879;52.986;6.282;2023-11-21T14:10:57;6.95;;;4.30;;
51824;SDS011;37879;52.986;6.282;2023-11-21T14:13:24;6.25;;;3.97;;
51824;SDS011;37879;52.986;6.282;2023-11-21T14:15:51;6.88;;;4.30;;
51824;SDS011;37879;52.986;6.282;2023-11-21T14:18:26;6.97;;;4.18;;
51824;SDS011;37879;52.986;6.282;2023-11-21T14:21:15;5.70;;;3.50;;
51824;SDS011;37879;52.986;6.282;2023-11-21T14:23:41;8.73;;;5.50;;
51824;SDS011;37879;52.986;6.282;2023-11-21T14:26:08;8.18;;;5.05;;
51824;SDS011;37879;52.986;6.282;2023-11-21T14:28:33;7.53;;;4.80;;
51824;SDS011;37879;52.986;6.282;2023-11-21T14:31:02;6.55;;;4.47;;
51824;SDS011;37879;52.986;6.282;2023-11-21T14:33:28;10.63;;;5.30;;
51824;SDS011;37879;52.986;6.282;2023-11-21T14:35:53;9.75;;;5.80;;
51824;SDS011;37879;52.986;6.282;2023-11-21T14:38:20;8.88;;;5.43;;
51824;SDS011;37879;52.986;6.282;2023-11-21T14:40:45;12.55;;;5.47;;
51824;SDS011;37879;52.986;6.282;2023-11-21T14:43:12;6.95;;;4.43;;
51824;SDS011;37879;52.986;6.282;2023-11-21T14:45:38;8.57;;;4.85;;
51824;SDS011;37879;52.986;6.282;2023-11-21T14:48:04;7.70;;;5.30;;
51824;SDS011;37879;52.986;6.282;2023-11-21T14:50:30;8.95;;;4.88;;
51824;SDS011;37879;52.986;6.282;2023-11-21T14:53:14;7.82;;;4.80;;
51824;SDS011;37879;52.986;6.282;2023-11-21T14:55:40;8.43;;;4.95;;
51824;SDS011;37879;52.986;6.282;2023-11-21T14:58:20;9.07;;;5.43;;